LGL51 ELLX-LEMD
Flight info
| Callsign | LGL51 |
|---|---|
| Flight time | N/A |
| Altitude | 31000 |
| Route | RAPOR DCT GIMER DCT AHVEC UN857 RESMI/N0439F370 UN857 DISAK DCT ARKIP DCT ARNAV DCT LMG DCT UVELI DCT OSMOB DCT ARVID T424 PPN N10 BANEV |
| Aircraft | B738/M-SDE2E3FGHIRWXY/LB1 |
Departure
| Time | 2026-04-29 16:26 |
|---|---|
| Airport | Luxembourg-Findel International Airport (ELLX) |
Arrival
| Time | N/A |
|---|---|
| Airport | Adolfo Suárez Madrid–Barajas Airport (LEMD) |
| Time | Latitude | Longitude | Altitude | Speed | Heading |
|---|---|---|---|---|---|
| 2026-04-29 16:01 | 49.63368 | 6.21740 | 1229 ft | 0 kts | 330° |
| 2026-04-29 16:15 | 49.63360 | 6.21747 | 1229 ft | 3 kts | 330° |
| 2026-04-29 16:15 | 49.63345 | 6.21760 | 1229 ft | 2 kts | 329° |
| 2026-04-29 16:16 | 49.63331 | 6.21777 | 1229 ft | 3 kts | 296° |
| 2026-04-29 16:16 | 49.63328 | 6.21802 | 1229 ft | 3 kts | 250° |
| 2026-04-29 16:16 | 49.63335 | 6.21825 | 1229 ft | 1 kts | 240° |
| 2026-04-29 16:16 | 49.63337 | 6.21832 | 1229 ft | 0 kts | 240° |
| 2026-04-29 16:18 | 49.63332 | 6.21822 | 1229 ft | 5 kts | 230° |
| 2026-04-29 16:19 | 49.63297 | 6.21815 | 1229 ft | 6 kts | 164° |
| 2026-04-29 16:19 | 49.63261 | 6.21841 | 1229 ft | 6 kts | 149° |
| 2026-04-29 16:19 | 49.63222 | 6.21876 | 1227 ft | 8 kts | 149° |
| 2026-04-29 16:19 | 49.63170 | 6.21896 | 1227 ft | 8 kts | 196° |
| 2026-04-29 16:20 | 49.63133 | 6.21826 | 1225 ft | 9 kts | 244° |
| 2026-04-29 16:20 | 49.63104 | 6.21735 | 1224 ft | 11 kts | 244° |
| 2026-04-29 16:20 | 49.63066 | 6.21615 | 1225 ft | 14 kts | 248° |
| 2026-04-29 16:20 | 49.63026 | 6.21483 | 1226 ft | 13 kts | 243° |
| 2026-04-29 16:21 | 49.62986 | 6.21357 | 1228 ft | 13 kts | 247° |
| 2026-04-29 16:21 | 49.62949 | 6.21235 | 1231 ft | 13 kts | 244° |
| 2026-04-29 16:21 | 49.62911 | 6.21111 | 1232 ft | 14 kts | 244° |
| 2026-04-29 16:21 | 49.62867 | 6.20970 | 1233 ft | 15 kts | 244° |
| 2026-04-29 16:22 | 49.62823 | 6.20830 | 1238 ft | 14 kts | 244° |
| 2026-04-29 16:22 | 49.62762 | 6.20701 | 1245 ft | 15 kts | 223° |
| 2026-04-29 16:22 | 49.62678 | 6.20598 | 1238 ft | 16 kts | 221° |
| 2026-04-29 16:22 | 49.62600 | 6.20469 | 1240 ft | 18 kts | 230° |
| 2026-04-29 16:23 | 49.62516 | 6.20318 | 1228 ft | 19 kts | 234° |
| 2026-04-29 16:23 | 49.62438 | 6.20122 | 1217 ft | 24 kts | 240° |
| 2026-04-29 16:23 | 49.62347 | 6.19883 | 1202 ft | 28 kts | 239° |
| 2026-04-29 16:23 | 49.62264 | 6.19659 | 1190 ft | 25 kts | 239° |
| 2026-04-29 16:24 | 49.62172 | 6.19408 | 1175 ft | 28 kts | 240° |
| 2026-04-29 16:24 | 49.62071 | 6.19134 | 1163 ft | 31 kts | 240° |
| 2026-04-29 16:24 | 49.62002 | 6.18949 | 1160 ft | 30 kts | 240° |
| 2026-04-29 16:24 | 49.61888 | 6.18741 | 1156 ft | 18 kts | 216° |
| 2026-04-29 16:25 | 49.61787 | 6.18749 | 1157 ft | 14 kts | 132° |
| 2026-04-29 16:25 | 49.61791 | 6.18855 | 1160 ft | 7 kts | 58° |
| 2026-04-29 16:25 | 49.61793 | 6.18861 | 1160 ft | 0 kts | 59° |
| 2026-04-29 16:25 | 49.61854 | 6.19021 | 1164 ft | 48 kts | 59° |
| 2026-04-29 16:26 | 49.62131 | 6.19770 | 1199 ft | 109 kts | 59° |
| 2026-04-29 16:26 | 49.62418 | 6.20544 | 1232 ft | 142 kts | 61° |
| 2026-04-29 16:26 | 49.62959 | 6.21963 | 1678 ft | 161 kts | 59° |
| 2026-04-29 16:26 | 49.63543 | 6.23481 | 2496 ft | 165 kts | 61° |
| 2026-04-29 16:27 | 49.64115 | 6.24995 | 3330 ft | 166 kts | 61° |
| 2026-04-29 16:27 | 49.64733 | 6.26582 | 3962 ft | 177 kts | 60° |
| 2026-04-29 16:27 | 49.65377 | 6.28287 | 4399 ft | 190 kts | 62° |
| 2026-04-29 16:27 | 49.66025 | 6.30113 | 4900 ft | 200 kts | 62° |
| 2026-04-29 16:28 | 49.66791 | 6.32035 | 5127 ft | 219 kts | 50° |
| 2026-04-29 16:28 | 49.68131 | 6.33296 | 5483 ft | 242 kts | 21° |
| 2026-04-29 16:28 | 49.69900 | 6.33484 | 5889 ft | 269 kts | 355° |
| 2026-04-29 16:28 | 49.71686 | 6.32413 | 6583 ft | 285 kts | 328° |
| 2026-04-29 16:29 | 49.73057 | 6.30146 | 7322 ft | 296 kts | 300° |
| 2026-04-29 16:29 | 49.73618 | 6.27121 | 8075 ft | 304 kts | 271° |
| 2026-04-29 16:29 | 49.73411 | 6.23901 | 8912 ft | 303 kts | 259° |
| 2026-04-29 16:29 | 49.72965 | 6.20714 | 9686 ft | 306 kts | 257° |
| 2026-04-29 16:30 | 49.72464 | 6.17508 | 10477 ft | 306 kts | 257° |
| 2026-04-29 16:30 | 49.71958 | 6.14232 | 10911 ft | 322 kts | 257° |
| 2026-04-29 16:30 | 49.71437 | 6.10744 | 11092 ft | 345 kts | 258° |
| 2026-04-29 16:30 | 49.70904 | 6.07028 | 11397 ft | 361 kts | 259° |
| 2026-04-29 16:31 | 49.70368 | 6.03184 | 11946 ft | 369 kts | 259° |
| 2026-04-29 16:31 | 49.69840 | 5.99347 | 12745 ft | 369 kts | 259° |
| 2026-04-29 16:31 | 49.69309 | 5.95458 | 13471 ft | 374 kts | 259° |
| 2026-04-29 16:31 | 49.68770 | 5.91483 | 14075 ft | 382 kts | 259° |
| 2026-04-29 16:32 | 49.68226 | 5.87455 | 14732 ft | 386 kts | 259° |
| 2026-04-29 16:32 | 49.67674 | 5.83369 | 15337 ft | 391 kts | 259° |
| 2026-04-29 16:32 | 49.67117 | 5.79257 | 16127 ft | 391 kts | 259° |
| 2026-04-29 16:32 | 49.66556 | 5.75133 | 16820 ft | 395 kts | 260° |
| 2026-04-29 16:33 | 49.65408 | 5.66720 | 18085 ft | 405 kts | 259° |
| 2026-04-29 16:33 | 49.64824 | 5.62469 | 18803 ft | 406 kts | 260° |
| 2026-04-29 16:33 | 49.64244 | 5.58254 | 19387 ft | 409 kts | 259° |
| 2026-04-29 16:34 | 49.63647 | 5.53929 | 19870 ft | 415 kts | 259° |
| 2026-04-29 16:34 | 49.63043 | 5.49560 | 20419 ft | 419 kts | 259° |
| 2026-04-29 16:34 | 49.62430 | 5.45145 | 20984 ft | 422 kts | 259° |
| 2026-04-29 16:34 | 49.61813 | 5.40702 | 21559 ft | 425 kts | 259° |
| 2026-04-29 16:35 | 49.61188 | 5.36219 | 22053 ft | 430 kts | 259° |
| 2026-04-29 16:35 | 49.60555 | 5.31690 | 22570 ft | 434 kts | 259° |
| 2026-04-29 16:35 | 49.59918 | 5.27140 | 23137 ft | 436 kts | 259° |
| 2026-04-29 16:35 | 49.59280 | 5.22615 | 23649 ft | 440 kts | 258° |
| 2026-04-29 16:36 | 49.58600 | 5.18005 | 24076 ft | 443 kts | 257° |
| 2026-04-29 16:36 | 49.57813 | 5.13395 | 24515 ft | 446 kts | 255° |
| 2026-04-29 16:36 | 49.56972 | 5.08780 | 24958 ft | 448 kts | 255° |
| 2026-04-29 16:36 | 49.56116 | 5.04148 | 25370 ft | 451 kts | 255° |
| 2026-04-29 16:37 | 49.55258 | 4.99483 | 25776 ft | 454 kts | 255° |
| 2026-04-29 16:37 | 49.54403 | 4.94788 | 26187 ft | 457 kts | 255° |
| 2026-04-29 16:37 | 49.53565 | 4.90145 | 26599 ft | 458 kts | 255° |
| 2026-04-29 16:37 | 49.52988 | 4.86932 | 26833 ft | 461 kts | 255° |
| 2026-04-29 16:38 | 49.51856 | 4.80619 | 27399 ft | 463 kts | 255° |
| 2026-04-29 16:38 | 49.50997 | 4.75837 | 27782 ft | 465 kts | 255° |
| 2026-04-29 16:38 | 49.50132 | 4.71026 | 28115 ft | 469 kts | 254° |
| 2026-04-29 16:38 | 49.49259 | 4.66185 | 28470 ft | 471 kts | 254° |
| 2026-04-29 16:39 | 49.48379 | 4.61322 | 28815 ft | 474 kts | 254° |
| 2026-04-29 16:39 | 49.47490 | 4.56424 | 29169 ft | 476 kts | 254° |
| 2026-04-29 16:39 | 49.46596 | 4.51516 | 29498 ft | 478 kts | 254° |
| 2026-04-29 16:39 | 49.45708 | 4.46649 | 29817 ft | 481 kts | 254° |
| 2026-04-29 16:40 | 49.44803 | 4.41701 | 30142 ft | 482 kts | 254° |
| 2026-04-29 16:40 | 49.43897 | 4.36762 | 30658 ft | 478 kts | 254° |
| 2026-04-29 16:40 | 49.43001 | 4.31894 | 31364 ft | 469 kts | 255° |
| 2026-04-29 16:40 | 49.42117 | 4.27103 | 31858 ft | 466 kts | 255° |
| 2026-04-29 16:41 | 49.41231 | 4.22308 | 32141 ft | 467 kts | 255° |
| 2026-04-29 16:41 | 49.40351 | 4.17549 | 32814 ft | 458 kts | 256° |
| 2026-04-29 16:41 | 49.39482 | 4.12861 | 33287 ft | 456 kts | 256° |
| 2026-04-29 16:41 | 49.38613 | 4.08193 | 33691 ft | 453 kts | 256° |
| 2026-04-29 16:42 | 49.37750 | 4.03570 | 34189 ft | 449 kts | 255° |
| 2026-04-29 16:42 | 49.36828 | 3.98999 | 34517 ft | 449 kts | 252° |
| 2026-04-29 16:42 | 49.35504 | 3.94630 | 34702 ft | 455 kts | 240° |
| 2026-04-29 16:42 | 49.33805 | 3.90626 | 35037 ft | 453 kts | 237° |
| 2026-04-29 16:43 | 49.32036 | 3.86639 | 35371 ft | 452 kts | 238° |
| 2026-04-29 16:43 | 49.30259 | 3.82665 | 35611 ft | 452 kts | 237° |
| 2026-04-29 16:43 | 49.28487 | 3.78701 | 35897 ft | 451 kts | 237° |
| 2026-04-29 16:43 | 49.26725 | 3.74730 | 36123 ft | 451 kts | 239° |
| 2026-04-29 16:44 | 49.24970 | 3.70747 | 36391 ft | 450 kts | 239° |
| 2026-04-29 16:44 | 49.23245 | 3.66810 | 36986 ft | 439 kts | 238° |
| 2026-04-29 16:44 | 49.19851 | 3.59073 | 37133 ft | 442 kts | 239° |
| 2026-04-29 16:45 | 49.16435 | 3.51293 | 37107 ft | 438 kts | 239° |
| 2026-04-29 16:45 | 49.13048 | 3.43615 | 37117 ft | 434 kts | 239° |
| 2026-04-29 16:46 | 49.09679 | 3.35999 | 37113 ft | 432 kts | 238° |
| 2026-04-29 16:46 | 49.06317 | 3.28411 | 37112 ft | 431 kts | 239° |
| 2026-04-29 16:47 | 49.02979 | 3.20905 | 37106 ft | 431 kts | 239° |
| 2026-04-29 16:47 | 48.99615 | 3.13358 | 37106 ft | 430 kts | 239° |
| 2026-04-29 16:48 | 48.96237 | 3.05805 | 37106 ft | 433 kts | 238° |
| 2026-04-29 16:48 | 48.92834 | 2.98209 | 37097 ft | 436 kts | 237° |
| 2026-04-29 16:49 | 48.89410 | 2.90598 | 37091 ft | 436 kts | 238° |
| 2026-04-29 16:49 | 48.86008 | 2.83043 | 37100 ft | 436 kts | 239° |
| 2026-04-29 16:50 | 48.82574 | 2.75452 | 37069 ft | 436 kts | 239° |
| 2026-04-29 16:50 | 48.79142 | 2.67884 | 37064 ft | 435 kts | 238° |
| 2026-04-29 16:51 | 48.75713 | 2.60346 | 37079 ft | 434 kts | 237° |
| 2026-04-29 16:51 | 48.72315 | 2.52872 | 37063 ft | 426 kts | 237° |
| 2026-04-29 16:52 | 48.68974 | 2.45550 | 37061 ft | 420 kts | 238° |
| 2026-04-29 16:52 | 48.65671 | 2.38313 | 37084 ft | 423 kts | 237° |
| 2026-04-29 16:53 | 48.62300 | 2.30952 | 37083 ft | 429 kts | 237° |
| 2026-04-29 16:53 | 48.58850 | 2.23613 | 37060 ft | 427 kts | 230° |
| 2026-04-29 16:54 | 48.56638 | 2.20637 | 37074 ft | 428 kts | 216° |
| 2026-04-29 16:54 | 48.54040 | 2.18455 | 37066 ft | 430 kts | 205° |
| 2026-04-29 16:54 | 48.51167 | 2.17156 | 37056 ft | 432 kts | 194° |
| 2026-04-29 16:54 | 48.48223 | 2.16260 | 37056 ft | 432 kts | 194° |
| 2026-04-29 16:55 | 48.42384 | 2.14510 | 37050 ft | 430 kts | 194° |
| 2026-04-29 16:55 | 48.36567 | 2.12671 | 37031 ft | 424 kts | 194° |
| 2026-04-29 16:56 | 48.30813 | 2.10830 | 37035 ft | 422 kts | 193° |
| 2026-04-29 16:56 | 48.24937 | 2.10574 | 37032 ft | 427 kts | 174° |
| 2026-04-29 16:57 | 48.19074 | 2.11958 | 37029 ft | 426 kts | 174° |
| 2026-04-29 16:57 | 48.13247 | 2.13047 | 37012 ft | 423 kts | 182° |
| 2026-04-29 16:58 | 48.07440 | 2.12206 | 37025 ft | 419 kts | 190° |
| 2026-04-29 16:58 | 48.01652 | 2.11013 | 37024 ft | 420 kts | 190° |
| 2026-04-29 16:59 | 47.95842 | 2.09858 | 37023 ft | 422 kts | 190° |
| 2026-04-29 16:59 | 47.90011 | 2.08727 | 37022 ft | 423 kts | 189° |
| 2026-04-29 17:00 | 47.84207 | 2.07614 | 37023 ft | 424 kts | 189° |
| 2026-04-29 17:00 | 47.78348 | 2.06491 | 36996 ft | 425 kts | 189° |
| 2026-04-29 17:01 | 47.72487 | 2.05365 | 37002 ft | 425 kts | 189° |
| 2026-04-29 17:01 | 47.66635 | 2.04247 | 36990 ft | 424 kts | 189° |
| 2026-04-29 17:02 | 47.60963 | 2.02396 | 36980 ft | 418 kts | 203° |
| 2026-04-29 17:02 | 47.55579 | 1.99209 | 36972 ft | 416 kts | 203° |
| 2026-04-29 17:03 | 47.50205 | 1.96040 | 36965 ft | 415 kts | 203° |
| 2026-04-29 17:03 | 47.44840 | 1.92920 | 36964 ft | 414 kts | 203° |
| 2026-04-29 17:04 | 47.39515 | 1.89841 | 36963 ft | 413 kts | 203° |
| 2026-04-29 17:04 | 47.34161 | 1.86754 | 36961 ft | 413 kts | 202° |
| 2026-04-29 17:05 | 47.28818 | 1.83675 | 36968 ft | 412 kts | 203° |
| 2026-04-29 17:05 | 47.23467 | 1.80599 | 36964 ft | 413 kts | 202° |
| 2026-04-29 17:06 | 47.18142 | 1.77562 | 36967 ft | 414 kts | 202° |
| 2026-04-29 17:06 | 47.12763 | 1.74546 | 36961 ft | 414 kts | 202° |
| 2026-04-29 17:07 | 47.07366 | 1.71530 | 36958 ft | 415 kts | 202° |
| 2026-04-29 17:07 | 47.01970 | 1.68508 | 36961 ft | 416 kts | 202° |
| 2026-04-29 17:08 | 46.96564 | 1.65482 | 36967 ft | 416 kts | 202° |
| 2026-04-29 17:08 | 46.91191 | 1.62480 | 36977 ft | 416 kts | 202° |
| 2026-04-29 17:09 | 46.85783 | 1.59467 | 36963 ft | 416 kts | 202° |
| 2026-04-29 17:09 | 46.80382 | 1.56463 | 36964 ft | 415 kts | 202° |
| 2026-04-29 17:10 | 46.74988 | 1.53470 | 36955 ft | 414 kts | 202° |
| 2026-04-29 17:10 | 46.69645 | 1.50511 | 36950 ft | 413 kts | 202° |
| 2026-04-29 17:11 | 46.64274 | 1.47543 | 36939 ft | 412 kts | 202° |
| 2026-04-29 17:11 | 46.58911 | 1.44585 | 36929 ft | 412 kts | 202° |
| 2026-04-29 17:12 | 46.53546 | 1.41632 | 36931 ft | 413 kts | 201° |
| 2026-04-29 17:12 | 46.49078 | 1.39178 | 36923 ft | 413 kts | 201° |
| 2026-04-29 17:13 | 46.42829 | 1.35754 | 36927 ft | 413 kts | 201° |
| 2026-04-29 17:13 | 46.37453 | 1.32813 | 36924 ft | 413 kts | 201° |
| 2026-04-29 17:14 | 46.32078 | 1.29880 | 36925 ft | 413 kts | 201° |
| 2026-04-29 17:14 | 46.26706 | 1.26955 | 36923 ft | 412 kts | 201° |
| 2026-04-29 17:15 | 46.21377 | 1.24058 | 36930 ft | 412 kts | 201° |
| 2026-04-29 17:15 | 46.16012 | 1.21148 | 36929 ft | 412 kts | 201° |
| 2026-04-29 17:16 | 46.10659 | 1.18249 | 36942 ft | 411 kts | 201° |
| 2026-04-29 17:16 | 46.05305 | 1.15357 | 36933 ft | 410 kts | 201° |
| 2026-04-29 17:17 | 45.99966 | 1.12478 | 36939 ft | 410 kts | 201° |
| 2026-04-29 17:17 | 45.94668 | 1.09624 | 36938 ft | 409 kts | 201° |
| 2026-04-29 17:18 | 45.89343 | 1.06759 | 36940 ft | 408 kts | 201° |
| 2026-04-29 17:18 | 45.84023 | 1.03902 | 36935 ft | 408 kts | 202° |
| 2026-04-29 17:19 | 45.79151 | 0.99823 | 36930 ft | 407 kts | 219° |
| 2026-04-29 17:19 | 45.74822 | 0.94602 | 36934 ft | 407 kts | 219° |
| 2026-04-29 17:20 | 45.70524 | 0.89411 | 36930 ft | 407 kts | 219° |
| 2026-04-29 17:20 | 45.66183 | 0.84206 | 36929 ft | 408 kts | 219° |
| 2026-04-29 17:21 | 45.61819 | 0.79003 | 36932 ft | 410 kts | 219° |
| 2026-04-29 17:21 | 45.57432 | 0.73787 | 36922 ft | 411 kts | 218° |
| 2026-04-29 17:22 | 45.53029 | 0.68564 | 36916 ft | 412 kts | 218° |
| 2026-04-29 17:22 | 45.48647 | 0.63375 | 36912 ft | 413 kts | 218° |
| 2026-04-29 17:23 | 45.44229 | 0.58155 | 36910 ft | 412 kts | 218° |
| 2026-04-29 17:23 | 45.39814 | 0.52950 | 36912 ft | 412 kts | 218° |
| 2026-04-29 17:24 | 45.35398 | 0.47753 | 36906 ft | 412 kts | 218° |
| 2026-04-29 17:24 | 45.31013 | 0.42605 | 36912 ft | 411 kts | 218° |
| 2026-04-29 17:25 | 45.26607 | 0.37441 | 36921 ft | 411 kts | 218° |
| 2026-04-29 17:25 | 45.22197 | 0.32283 | 36907 ft | 411 kts | 218° |
| 2026-04-29 17:26 | 45.17793 | 0.27141 | 36908 ft | 410 kts | 218° |
| 2026-04-29 17:26 | 45.13417 | 0.22042 | 36909 ft | 410 kts | 218° |
| 2026-04-29 17:27 | 45.09011 | 0.16913 | 36906 ft | 410 kts | 218° |
| 2026-04-29 17:27 | 45.04602 | 0.11799 | 36907 ft | 410 kts | 218° |
| 2026-04-29 17:28 | 45.00187 | 0.06698 | 36908 ft | 410 kts | 217° |
| 2026-04-29 17:28 | 44.95797 | 0.01640 | 36914 ft | 410 kts | 217° |
| 2026-04-29 17:29 | 44.91375 | -0.03455 | 36918 ft | 411 kts | 217° |
| 2026-04-29 17:29 | 44.87694 | -0.07691 | 36913 ft | 411 kts | 217° |
| 2026-04-29 17:30 | 44.82509 | -0.13648 | 36910 ft | 411 kts | 217° |
| 2026-04-29 17:30 | 44.78070 | -0.18739 | 36911 ft | 412 kts | 217° |
| 2026-04-29 17:31 | 44.73657 | -0.23792 | 36905 ft | 412 kts | 217° |
| 2026-04-29 17:31 | 44.69213 | -0.28873 | 36908 ft | 412 kts | 217° |
| 2026-04-29 17:32 | 44.64722 | -0.33873 | 36905 ft | 411 kts | 212° |
| 2026-04-29 17:32 | 44.59710 | -0.37722 | 36901 ft | 410 kts | 206° |
| 2026-04-29 17:33 | 44.54663 | -0.41354 | 36903 ft | 410 kts | 206° |
| 2026-04-29 17:33 | 44.49599 | -0.45030 | 36902 ft | 410 kts | 206° |
| 2026-04-29 17:34 | 44.44534 | -0.48730 | 36897 ft | 410 kts | 206° |
| 2026-04-29 17:34 | 44.39482 | -0.52427 | 36898 ft | 410 kts | 206° |
| 2026-04-29 17:35 | 44.31933 | -0.57936 | 36896 ft | 410 kts | 206° |
| 2026-04-29 17:36 | 44.26876 | -0.61619 | 36887 ft | 410 kts | 207° |
| 2026-04-29 17:36 | 44.21820 | -0.65296 | 36886 ft | 410 kts | 207° |
| 2026-04-29 17:37 | 44.16758 | -0.68969 | 36889 ft | 410 kts | 206° |
| 2026-04-29 17:37 | 44.11731 | -0.72607 | 36884 ft | 410 kts | 206° |
| 2026-04-29 17:38 | 44.06665 | -0.76268 | 36886 ft | 410 kts | 206° |
| 2026-04-29 17:38 | 44.01590 | -0.79929 | 36885 ft | 411 kts | 206° |
| 2026-04-29 17:39 | 43.96505 | -0.83589 | 36884 ft | 413 kts | 206° |
| 2026-04-29 17:39 | 43.91434 | -0.87232 | 36884 ft | 414 kts | 206° |
| 2026-04-29 17:40 | 43.86321 | -0.90898 | 36878 ft | 414 kts | 206° |
| 2026-04-29 17:40 | 43.81201 | -0.94563 | 36879 ft | 414 kts | 206° |
| 2026-04-29 17:41 | 43.76078 | -0.98221 | 36884 ft | 414 kts | 206° |
| 2026-04-29 17:41 | 43.70956 | -1.01873 | 36884 ft | 414 kts | 206° |
| 2026-04-29 17:42 | 43.65868 | -1.05493 | 36888 ft | 414 kts | 206° |
| 2026-04-29 17:42 | 43.60741 | -1.09135 | 36878 ft | 414 kts | 207° |
| 2026-04-29 17:43 | 43.55616 | -1.12767 | 36872 ft | 414 kts | 206° |
| 2026-04-29 17:43 | 43.50489 | -1.16394 | 36875 ft | 415 kts | 206° |
| 2026-04-29 17:44 | 43.45385 | -1.19999 | 36865 ft | 415 kts | 206° |
| 2026-04-29 17:44 | 43.40245 | -1.23623 | 36854 ft | 415 kts | 207° |
| 2026-04-29 17:45 | 43.35101 | -1.27242 | 36860 ft | 415 kts | 207° |
| 2026-04-29 17:45 | 43.29954 | -1.30857 | 36866 ft | 416 kts | 207° |
| 2026-04-29 17:46 | 43.24831 | -1.34448 | 36872 ft | 417 kts | 207° |
| 2026-04-29 17:46 | 43.19670 | -1.38061 | 36879 ft | 416 kts | 207° |
| 2026-04-29 17:47 | 43.14551 | -1.41641 | 36892 ft | 411 kts | 207° |
| 2026-04-29 17:47 | 43.09446 | -1.45201 | 36902 ft | 412 kts | 207° |
| 2026-04-29 17:48 | 43.04362 | -1.48737 | 36897 ft | 413 kts | 207° |
| 2026-04-29 17:48 | 42.99217 | -1.52307 | 36885 ft | 416 kts | 207° |
| 2026-04-29 17:49 | 42.94070 | -1.55882 | 36906 ft | 414 kts | 207° |
| 2026-04-29 17:49 | 42.88948 | -1.59435 | 36911 ft | 412 kts | 207° |
| 2026-04-29 17:50 | 42.83876 | -1.62948 | 36912 ft | 411 kts | 207° |
| 2026-04-29 17:50 | 42.78785 | -1.66472 | 36913 ft | 410 kts | 207° |
| 2026-04-29 17:51 | 42.73702 | -1.69977 | 36906 ft | 409 kts | 207° |
| 2026-04-29 17:51 | 42.68612 | -1.73420 | 36912 ft | 409 kts | 206° |
| 2026-04-29 17:52 | 42.63545 | -1.76805 | 36917 ft | 409 kts | 206° |
| 2026-04-29 17:52 | 42.58435 | -1.80226 | 36906 ft | 410 kts | 206° |
| 2026-04-29 17:53 | 42.53315 | -1.83657 | 36913 ft | 411 kts | 206° |
| 2026-04-29 17:53 | 42.48190 | -1.87090 | 36913 ft | 411 kts | 206° |
| 2026-04-29 17:54 | 42.43045 | -1.90522 | 36852 ft | 413 kts | 206° |
| 2026-04-29 17:54 | 42.40461 | -1.92247 | 36440 ft | 412 kts | 206° |
| 2026-04-29 17:54 | 42.37907 | -1.93951 | 36085 ft | 407 kts | 206° |
| 2026-04-29 17:54 | 42.35412 | -1.95612 | 35698 ft | 403 kts | 206° |
| 2026-04-29 17:55 | 42.32914 | -1.97277 | 35353 ft | 398 kts | 206° |
| 2026-04-29 17:55 | 42.30451 | -1.98920 | 34993 ft | 393 kts | 206° |
| 2026-04-29 17:55 | 42.28011 | -2.00545 | 34616 ft | 390 kts | 206° |
| 2026-04-29 17:55 | 42.25595 | -2.02154 | 34299 ft | 384 kts | 206° |
| 2026-04-29 17:56 | 42.23210 | -2.03738 | 33958 ft | 381 kts | 205° |
| 2026-04-29 17:56 | 42.20845 | -2.05306 | 33549 ft | 377 kts | 205° |
| 2026-04-29 17:56 | 42.18498 | -2.06860 | 33161 ft | 374 kts | 205° |
| 2026-04-29 17:56 | 42.16206 | -2.08377 | 32795 ft | 370 kts | 205° |
| 2026-04-29 17:57 | 42.13914 | -2.09889 | 32454 ft | 366 kts | 206° |
| 2026-04-29 17:57 | 42.11631 | -2.11391 | 32079 ft | 363 kts | 205° |
| 2026-04-29 17:57 | 42.09367 | -2.12881 | 31715 ft | 361 kts | 205° |
| 2026-04-29 17:57 | 42.07876 | -2.13863 | 31473 ft | 359 kts | 205° |
| 2026-04-29 17:58 | 42.04884 | -2.15832 | 31004 ft | 356 kts | 205° |
| 2026-04-29 17:58 | 42.02664 | -2.17293 | 30632 ft | 354 kts | 206° |
| 2026-04-29 17:58 | 42.00458 | -2.18746 | 30297 ft | 352 kts | 206° |
| 2026-04-29 17:58 | 41.98260 | -2.20191 | 29937 ft | 351 kts | 205° |
| 2026-04-29 17:59 | 41.96104 | -2.21608 | 29508 ft | 349 kts | 206° |
| 2026-04-29 17:59 | 41.93935 | -2.23032 | 29172 ft | 345 kts | 206° |
| 2026-04-29 17:59 | 41.91789 | -2.24442 | 28800 ft | 342 kts | 206° |
| 2026-04-29 17:59 | 41.89662 | -2.25837 | 28447 ft | 339 kts | 206° |
| 2026-04-29 18:00 | 41.87547 | -2.27224 | 28077 ft | 337 kts | 206° |
| 2026-04-29 18:00 | 41.85447 | -2.28600 | 27727 ft | 335 kts | 206° |
| 2026-04-29 18:00 | 41.83361 | -2.29965 | 27362 ft | 332 kts | 206° |
| 2026-04-29 18:00 | 41.81290 | -2.31320 | 27008 ft | 331 kts | 206° |
| 2026-04-29 18:01 | 41.79257 | -2.32648 | 26666 ft | 329 kts | 206° |
| 2026-04-29 18:01 | 41.77206 | -2.33988 | 26319 ft | 327 kts | 206° |
| 2026-04-29 18:01 | 41.75169 | -2.35317 | 25974 ft | 325 kts | 206° |
| 2026-04-29 18:01 | 41.73141 | -2.36642 | 25642 ft | 323 kts | 206° |
| 2026-04-29 18:02 | 41.71124 | -2.37956 | 25288 ft | 322 kts | 206° |
| 2026-04-29 18:02 | 41.69117 | -2.39263 | 24962 ft | 320 kts | 206° |
| 2026-04-29 18:02 | 41.67118 | -2.40565 | 24630 ft | 319 kts | 206° |
| 2026-04-29 18:02 | 41.65131 | -2.41859 | 24293 ft | 317 kts | 206° |
| 2026-04-29 18:03 | 41.63174 | -2.43131 | 23967 ft | 316 kts | 206° |
| 2026-04-29 18:03 | 41.61202 | -2.44414 | 23625 ft | 315 kts | 206° |
| 2026-04-29 18:03 | 41.59233 | -2.45694 | 23254 ft | 314 kts | 206° |
| 2026-04-29 18:03 | 41.57271 | -2.46969 | 22873 ft | 313 kts | 206° |
| 2026-04-29 18:04 | 41.55322 | -2.48235 | 22537 ft | 310 kts | 206° |
| 2026-04-29 18:04 | 41.53384 | -2.49491 | 22180 ft | 309 kts | 206° |
| 2026-04-29 18:04 | 41.51460 | -2.50734 | 21872 ft | 306 kts | 206° |
| 2026-04-29 18:04 | 41.49551 | -2.51966 | 21540 ft | 304 kts | 206° |
| 2026-04-29 18:05 | 41.47675 | -2.53169 | 21208 ft | 302 kts | 206° |
| 2026-04-29 18:05 | 41.45785 | -2.54378 | 20884 ft | 301 kts | 206° |
| 2026-04-29 18:05 | 41.43902 | -2.55582 | 20566 ft | 299 kts | 206° |
| 2026-04-29 18:05 | 41.42029 | -2.56780 | 20242 ft | 298 kts | 206° |
| 2026-04-29 18:06 | 41.40164 | -2.57975 | 19938 ft | 297 kts | 206° |
| 2026-04-29 18:06 | 41.38308 | -2.59163 | 19620 ft | 295 kts | 206° |
| 2026-04-29 18:06 | 41.36458 | -2.60345 | 19293 ft | 294 kts | 206° |
| 2026-04-29 18:06 | 41.34612 | -2.61521 | 18978 ft | 294 kts | 206° |
| 2026-04-29 18:07 | 41.32831 | -2.62762 | 18650 ft | 293 kts | 216° |
| 2026-04-29 18:07 | 41.31373 | -2.64647 | 18308 ft | 294 kts | 229° |
| 2026-04-29 18:07 | 41.30138 | -2.66825 | 17950 ft | 295 kts | 232° |
| 2026-04-29 18:07 | 41.28961 | -2.69055 | 17613 ft | 294 kts | 232° |
| 2026-04-29 18:08 | 41.27792 | -2.71284 | 17275 ft | 293 kts | 232° |
| 2026-04-29 18:08 | 41.26621 | -2.73497 | 16955 ft | 292 kts | 232° |
| 2026-04-29 18:08 | 41.25466 | -2.75664 | 16844 ft | 283 kts | 232° |
| 2026-04-29 18:08 | 41.24337 | -2.77768 | 16718 ft | 276 kts | 232° |
| 2026-04-29 18:09 | 41.23231 | -2.79816 | 16605 ft | 269 kts | 232° |
| 2026-04-29 18:09 | 41.22163 | -2.81786 | 16504 ft | 264 kts | 232° |
| 2026-04-29 18:09 | 41.21069 | -2.83797 | 16432 ft | 278 kts | 232° |
| 2026-04-29 18:09 | 41.19905 | -2.85932 | 16284 ft | 291 kts | 232° |
| 2026-04-29 18:10 | 41.18703 | -2.88135 | 15951 ft | 296 kts | 232° |
| 2026-04-29 18:10 | 41.17493 | -2.90346 | 15644 ft | 297 kts | 232° |
| 2026-04-29 18:10 | 41.16283 | -2.92557 | 15344 ft | 296 kts | 232° |
| 2026-04-29 18:10 | 41.15078 | -2.94763 | 15032 ft | 294 kts | 232° |
| 2026-04-29 18:11 | 41.13882 | -2.96948 | 14732 ft | 292 kts | 232° |
| 2026-04-29 18:11 | 41.12705 | -2.99098 | 14428 ft | 291 kts | 232° |
| 2026-04-29 18:11 | 41.11519 | -3.01265 | 14131 ft | 290 kts | 231° |
| 2026-04-29 18:11 | 41.10337 | -3.03423 | 13837 ft | 288 kts | 232° |
| 2026-04-29 18:12 | 41.09161 | -3.05569 | 13552 ft | 287 kts | 232° |
| 2026-04-29 18:12 | 41.08005 | -3.07679 | 13403 ft | 279 kts | 231° |
| 2026-04-29 18:12 | 41.06866 | -3.09754 | 13121 ft | 278 kts | 232° |